Terminal Aerodrome Forecast
Issued by NWS

Home | Current Version | Previous Version | Text Only | Print | Product List | Glossary On
Versions: 1 2 3 4 5 6 7 8 9 10 11 12 13 14 15 16
307
FTUS44 KMAF 250520
TAFFST
TAF
KFST 250520Z 2506/2606 16010KT P6SM FEW100 SCT250
     FM251900 14012G21KT P6SM FEW080 SCT250=

USA.gov is the U.S. government's official web portal to all federal, state and local government web resources and services.